sensor_id;sensor_type;location;lat;lon;timestamp;temperature;humidity
45283;DHT22;31023;44.994;1.796;2022-07-21T00:01:31;20.30;99.90
45283;DHT22;31023;44.994;1.796;2022-07-21T00:03:57;20.10;99.90
45283;DHT22;31023;44.994;1.796;2022-07-21T00:06:23;20.10;99.90
45283;DHT22;31023;44.994;1.796;2022-07-21T00:08:49;20.20;99.90
45283;DHT22;31023;44.994;1.796;2022-07-21T00:11:14;20.10;99.90
45283;DHT22;31023;44.994;1.796;2022-07-21T00:13:40;20.10;99.90
45283;DHT22;31023;44.994;1.796;2022-07-21T00:16:06;20.10;99.90
45283;DHT22;31023;44.994;1.796;2022-07-21T00:18:32;20.10;99.90
45283;DHT22;31023;44.994;1.796;2022-07-21T00:20:58;20.00;99.90
45283;DHT22;31023;44.994;1.796;2022-07-21T00:23:25;20.00;99.90
45283;DHT22;31023;44.994;1.796;2022-07-21T00:25:51;19.90;99.90
45283;DHT22;31023;44.994;1.796;2022-07-21T00:28:17;19.90;99.90
45283;DHT22;31023;44.994;1.796;2022-07-21T00:30:43;19.90;99.90
45283;DHT22;31023;44.994;1.796;2022-07-21T00:33:09;19.90;99.90
45283;DHT22;31023;44.994;1.796;2022-07-21T00:35:35;19.90;99.90
45283;DHT22;31023;44.994;1.796;2022-07-21T00:38:01;19.90;99.90
45283;DHT22;31023;44.994;1.796;2022-07-21T00:40:27;19.90;99.90
45283;DHT22;31023;44.994;1.796;2022-07-21T00:42:52;20.00;99.90
45283;DHT22;31023;44.994;1.796;2022-07-21T00:45:18;19.90;99.90
45283;DHT22;31023;44.994;1.796;2022-07-21T00:47:44;19.80;99.90
45283;DHT22;31023;44.994;1.796;2022-07-21T00:50:13;19.80;99.90
45283;DHT22;31023;44.994;1.796;2022-07-21T00:52:39;19.80;99.90
45283;DHT22;31023;44.994;1.796;2022-07-21T00:55:07;19.60;99.90
45283;DHT22;31023;44.994;1.796;2022-07-21T00:57:34;19.50;99.90
45283;DHT22;31023;44.994;1.796;2022-07-21T01:00:04;19.50;99.90
45283;DHT22;31023;44.994;1.796;2022-07-21T01:02:29;19.40;99.90
45283;DHT22;31023;44.994;1.796;2022-07-21T01:04:57;19.40;99.90
45283;DHT22;31023;44.994;1.796;2022-07-21T01:07:23;19.40;99.90
45283;DHT22;31023;44.994;1.796;2022-07-21T01:09:49;19.30;99.90
45283;DHT22;31023;44.994;1.796;2022-07-21T01:12:46;19.30;99.90
45283;DHT22;31023;44.994;1.796;2022-07-21T01:15:14;19.30;99.90
45283;DHT22;31023;44.994;1.796;2022-07-21T01:17:41;19.30;99.90
45283;DHT22;31023;44.994;1.796;2022-07-21T01:20:10;19.20;99.90
45283;DHT22;31023;44.994;1.796;2022-07-21T01:22:39;19.30;99.90
45283;DHT22;31023;44.994;1.796;2022-07-21T01:25:05;19.30;99.90
45283;DHT22;31023;44.994;1.796;2022-07-21T01:27:31;19.30;99.90
45283;DHT22;31023;44.994;1.796;2022-07-21T01:29:58;19.20;99.90
45283;DHT22;31023;44.994;1.796;2022-07-21T01:32:24;19.20;99.90
45283;DHT22;31023;44.994;1.796;2022-07-21T01:34:50;19.30;99.90
45283;DHT22;31023;44.994;1.796;2022-07-21T01:37:23;19.20;99.90
45283;DHT22;31023;44.994;1.796;2022-07-21T01:39:51;19.30;99.90
45283;DHT22;31023;44.994;1.796;2022-07-21T01:42:36;19.30;99.90
45283;DHT22;31023;44.994;1.796;2022-07-21T01:45:03;19.30;99.90
45283;DHT22;31023;44.994;1.796;2022-07-21T01:47:29;19.20;99.90
45283;DHT22;31023;44.994;1.796;2022-07-21T01:49:55;19.20;99.90
45283;DHT22;31023;44.994;1.796;2022-07-21T01:52:21;19.10;99.90
45283;DHT22;31023;44.994;1.796;2022-07-21T01:54:46;19.10;99.90
45283;DHT22;31023;44.994;1.796;2022-07-21T01:57:12;19.10;99.90
45283;DHT22;31023;44.994;1.796;2022-07-21T01:59:38;19.00;99.90
45283;DHT22;31023;44.994;1.796;2022-07-21T02:02:04;19.10;99.90
45283;DHT22;31023;44.994;1.796;2022-07-21T02:04:29;18.90;99.90
45283;DHT22;31023;44.994;1.796;2022-07-21T02:06:55;18.90;99.90
45283;DHT22;31023;44.994;1.796;2022-07-21T02:09:21;18.90;99.90
45283;DHT22;31023;44.994;1.796;2022-07-21T02:11:46;18.80;99.90
45283;DHT22;31023;44.994;1.796;2022-07-21T02:14:12;18.80;99.90
45283;DHT22;31023;44.994;1.796;2022-07-21T02:16:38;18.80;99.90
45283;DHT22;31023;44.994;1.796;2022-07-21T02:19:03;18.70;99.90
45283;DHT22;31023;44.994;1.796;2022-07-21T02:21:29;18.70;99.90
45283;DHT22;31023;44.994;1.796;2022-07-21T02:23:55;18.60;99.90
45283;DHT22;31023;44.994;1.796;2022-07-21T02:26:21;18.50;99.90
45283;DHT22;31023;44.994;1.796;2022-07-21T02:28:47;18.50;99.90
45283;DHT22;31023;44.994;1.796;2022-07-21T02:31:13;18.60;99.90
45283;DHT22;31023;44.994;1.796;2022-07-21T02:33:38;18.60;99.90
45283;DHT22;31023;44.994;1.796;2022-07-21T02:36:04;18.50;99.90
45283;DHT22;31023;44.994;1.796;2022-07-21T02:38:30;18.40;99.90
45283;DHT22;31023;44.994;1.796;2022-07-21T02:40:56;18.30;99.90
45283;DHT22;31023;44.994;1.796;2022-07-21T02:43:21;18.30;99.90
45283;DHT22;31023;44.994;1.796;2022-07-21T02:45:47;18.30;99.90
45283;DHT22;31023;44.994;1.796;2022-07-21T02:48:13;18.30;99.90
45283;DHT22;31023;44.994;1.796;2022-07-21T02:50:41;18.20;99.90
45283;DHT22;31023;44.994;1.796;2022-07-21T02:53:09;18.10;99.90
45283;DHT22;31023;44.994;1.796;2022-07-21T02:55:36;18.10;99.90
45283;DHT22;31023;44.994;1.796;2022-07-21T02:58:31;18.10;99.90
45283;DHT22;31023;44.994;1.796;2022-07-21T03:00:59;18.10;99.90
45283;DHT22;31023;44.994;1.796;2022-07-21T03:03:27;18.00;99.90
45283;DHT22;31023;44.994;1.796;2022-07-21T03:05:53;18.10;99.90
45283;DHT22;31023;44.994;1.796;2022-07-21T03:08:20;18.20;99.90
45283;DHT22;31023;44.994;1.796;2022-07-21T03:10:45;18.10;99.90
45283;DHT22;31023;44.994;1.796;2022-07-21T03:13:12;17.90;99.90
45283;DHT22;31023;44.994;1.796;2022-07-21T03:15:38;17.90;99.90
45283;DHT22;31023;44.994;1.796;2022-07-21T03:18:04;17.90;99.90
45283;DHT22;31023;44.994;1.796;2022-07-21T03:20:32;17.90;99.90
45283;DHT22;31023;44.994;1.796;2022-07-21T03:22:58;17.80;99.90
45283;DHT22;31023;44.994;1.796;2022-07-21T03:25:24;17.80;99.90
45283;DHT22;31023;44.994;1.796;2022-07-21T03:27:50;17.90;99.90
45283;DHT22;31023;44.994;1.796;2022-07-21T03:30:16;17.90;99.90
45283;DHT22;31023;44.994;1.796;2022-07-21T03:32:42;17.70;99.90
45283;DHT22;31023;44.994;1.796;2022-07-21T03:35:09;17.70;99.90
45283;DHT22;31023;44.994;1.796;2022-07-21T03:37:44;17.60;99.90
45283;DHT22;31023;44.994;1.796;2022-07-21T03:40:15;17.50;99.90
45283;DHT22;31023;44.994;1.796;2022-07-21T03:42:41;17.50;99.90
45283;DHT22;31023;44.994;1.796;2022-07-21T03:45:07;17.50;99.90
45283;DHT22;31023;44.994;1.796;2022-07-21T03:47:33;17.40;99.90
45283;DHT22;31023;44.994;1.796;2022-07-21T03:49:59;17.40;99.90
45283;DHT22;31023;44.994;1.796;2022-07-21T03:52:25;17.40;99.90
45283;DHT22;31023;44.994;1.796;2022-07-21T03:54:51;17.40;99.90
45283;DHT22;31023;44.994;1.796;2022-07-21T03:57:37;17.30;99.90
45283;DHT22;31023;44.994;1.796;2022-07-21T04:00:06;17.30;99.90
45283;DHT22;31023;44.994;1.796;2022-07-21T04:02:32;17.20;99.90
45283;DHT22;31023;44.994;1.796;2022-07-21T04:04:58;17.20;99.90
45283;DHT22;31023;44.994;1.796;2022-07-21T04:07:23;17.10;99.90
45283;DHT22;31023;44.994;1.796;2022-07-21T04:09:49;17.10;99.90
45283;DHT22;31023;44.994;1.796;2022-07-21T04:12:15;17.10;99.90
45283;DHT22;31023;44.994;1.796;2022-07-21T04:14:40;17.00;99.90
45283;DHT22;31023;44.994;1.796;2022-07-21T04:17:06;17.00;99.90
45283;DHT22;31023;44.994;1.796;2022-07-21T04:19:32;17.00;99.90
45283;DHT22;31023;44.994;1.796;2022-07-21T04:21:57;16.90;99.90
45283;DHT22;31023;44.994;1.796;2022-07-21T04:24:23;17.00;99.90
45283;DHT22;31023;44.994;1.796;2022-07-21T04:26:49;17.00;99.90
45283;DHT22;31023;44.994;1.796;2022-07-21T04:29:14;17.00;99.90
45283;DHT22;31023;44.994;1.796;2022-07-21T04:31:40;17.00;99.90
45283;DHT22;31023;44.994;1.796;2022-07-21T04:34:06;16.90;99.90
45283;DHT22;31023;44.994;1.796;2022-07-21T04:36:31;16.80;99.90
45283;DHT22;31023;44.994;1.796;2022-07-21T04:38:57;16.80;99.90
45283;DHT22;31023;44.994;1.796;2022-07-21T04:41:22;16.80;99.90
45283;DHT22;31023;44.994;1.796;2022-07-21T04:43:48;17.00;99.90
45283;DHT22;31023;44.994;1.796;2022-07-21T04:46:14;17.20;99.90
45283;DHT22;31023;44.994;1.796;2022-07-21T04:48:41;17.30;99.90
45283;DHT22;31023;44.994;1.796;2022-07-21T04:51:06;17.40;99.90
45283;DHT22;31023;44.994;1.796;2022-07-21T04:53:32;17.50;99.90
45283;DHT22;31023;44.994;1.796;2022-07-21T04:55:58;17.50;99.90
45283;DHT22;31023;44.994;1.796;2022-07-21T04:58:23;17.70;99.90
45283;DHT22;31023;44.994;1.796;2022-07-21T05:00:49;17.80;99.90
45283;DHT22;31023;44.994;1.796;2022-07-21T05:03:15;18.00;99.90
45283;DHT22;31023;44.994;1.796;2022-07-21T05:05:40;18.00;99.90
45283;DHT22;31023;44.994;1.796;2022-07-21T05:08:06;18.10;99.90
45283;DHT22;31023;44.994;1.796;2022-07-21T05:10:32;18.40;99.90
45283;DHT22;31023;44.994;1.796;2022-07-21T05:12:58;18.30;99.90
45283;DHT22;31023;44.994;1.796;2022-07-21T05:15:23;18.60;99.90
45283;DHT22;31023;44.994;1.796;2022-07-21T05:17:49;18.70;99.90
45283;DHT22;31023;44.994;1.796;2022-07-21T05:20:15;18.80;99.90
45283;DHT22;31023;44.994;1.796;2022-07-21T05:22:41;19.10;99.90
45283;DHT22;31023;44.994;1.796;2022-07-21T05:25:07;19.30;99.90
45283;DHT22;31023;44.994;1.796;2022-07-21T05:27:33;19.40;99.90
45283;DHT22;31023;44.994;1.796;2022-07-21T05:29:59;19.70;99.90
45283;DHT22;31023;44.994;1.796;2022-07-21T05:32:25;20.00;99.90
45283;DHT22;31023;44.994;1.796;2022-07-21T05:34:50;20.20;99.90
45283;DHT22;31023;44.994;1.796;2022-07-21T05:37:16;20.30;99.90
45283;DHT22;31023;44.994;1.796;2022-07-21T05:39:42;21.00;99.90
45283;DHT22;31023;44.994;1.796;2022-07-21T05:42:07;21.40;99.90
45283;DHT22;31023;44.994;1.796;2022-07-21T05:44:33;21.70;99.90
45283;DHT22;31023;44.994;1.796;2022-07-21T05:46:59;22.10;99.90
45283;DHT22;31023;44.994;1.796;2022-07-21T05:49:24;22.20;99.90
45283;DHT22;31023;44.994;1.796;2022-07-21T05:51:50;22.70;99.90
45283;DHT22;31023;44.994;1.796;2022-07-21T05:54:16;22.90;99.90
45283;DHT22;31023;44.994;1.796;2022-07-21T05:56:41;23.30;98.20
45283;DHT22;31023;44.994;1.796;2022-07-21T05:59:07;23.60;96.60
45283;DHT22;31023;44.994;1.796;2022-07-21T06:01:33;24.00;94.10
45283;DHT22;31023;44.994;1.796;2022-07-21T06:03:59;24.30;92.30
45283;DHT22;31023;44.994;1.796;2022-07-21T06:06:24;24.00;92.00
45283;DHT22;31023;44.994;1.796;2022-07-21T06:08:50;24.40;91.80
45283;DHT22;31023;44.994;1.796;2022-07-21T06:11:18;24.70;90.00
45283;DHT22;31023;44.994;1.796;2022-07-21T06:13:44;25.40;85.90
45283;DHT22;31023;44.994;1.796;2022-07-21T06:16:11;25.50;84.30
45283;DHT22;31023;44.994;1.796;2022-07-21T06:18:37;25.10;84.10
45283;DHT22;31023;44.994;1.796;2022-07-21T06:21:04;26.00;82.00
45283;DHT22;31023;44.994;1.796;2022-07-21T06:23:30;26.50;78.90
45283;DHT22;31023;44.994;1.796;2022-07-21T06:25:56;25.80;79.30
45283;DHT22;31023;44.994;1.796;2022-07-21T06:28:22;25.90;80.00
45283;DHT22;31023;44.994;1.796;2022-07-21T06:30:48;26.30;77.00
45283;DHT22;31023;44.994;1.796;2022-07-21T06:33:15;27.10;75.20
45283;DHT22;31023;44.994;1.796;2022-07-21T06:35:41;27.40;74.40
45283;DHT22;31023;44.994;1.796;2022-07-21T06:38:06;27.70;72.50
45283;DHT22;31023;44.994;1.796;2022-07-21T06:40:32;27.70;72.20
45283;DHT22;31023;44.994;1.796;2022-07-21T06:42:58;28.30;69.20
45283;DHT22;31023;44.994;1.796;2022-07-21T06:45:24;27.80;69.40
45283;DHT22;31023;44.994;1.796;2022-07-21T06:47:50;27.90;68.80
45283;DHT22;31023;44.994;1.796;2022-07-21T06:50:23;28.90;67.20
45283;DHT22;31023;44.994;1.796;2022-07-21T06:52:49;29.50;65.00
45283;DHT22;31023;44.994;1.796;2022-07-21T06:55:15;29.50;64.70
45283;DHT22;31023;44.994;1.796;2022-07-21T06:57:40;29.40;65.50
45283;DHT22;31023;44.994;1.796;2022-07-21T07:00:06;29.50;64.50
45283;DHT22;31023;44.994;1.796;2022-07-21T07:02:32;29.80;63.90
45283;DHT22;31023;44.994;1.796;2022-07-21T07:04:58;30.10;63.30
45283;DHT22;31023;44.994;1.796;2022-07-21T07:07:24;30.10;61.50
45283;DHT22;31023;44.994;1.796;2022-07-21T07:09:49;31.00;62.20
45283;DHT22;31023;44.994;1.796;2022-07-21T07:12:15;30.60;61.30
45283;DHT22;31023;44.994;1.796;2022-07-21T07:14:41;31.30;60.90
45283;DHT22;31023;44.994;1.796;2022-07-21T07:17:06;31.40;59.20
45283;DHT22;31023;44.994;1.796;2022-07-21T07:19:32;31.90;58.70
45283;DHT22;31023;44.994;1.796;2022-07-21T07:21:58;32.50;57.40
45283;DHT22;31023;44.994;1.796;2022-07-21T07:24:24;32.20;57.90
45283;DHT22;31023;44.994;1.796;2022-07-21T07:26:50;32.40;57.10
45283;DHT22;31023;44.994;1.796;2022-07-21T07:29:15;32.70;57.40
45283;DHT22;31023;44.994;1.796;2022-07-21T07:31:41;32.60;56.00
45283;DHT22;31023;44.994;1.796;2022-07-21T07:34:07;32.80;56.20
45283;DHT22;31023;44.994;1.796;2022-07-21T07:36:33;33.20;56.00
45283;DHT22;31023;44.994;1.796;2022-07-21T07:39:00;33.90;55.30
45283;DHT22;31023;44.994;1.796;2022-07-21T07:41:27;34.20;54.40
45283;DHT22;31023;44.994;1.796;2022-07-21T07:43:54;34.00;55.10
45283;DHT22;31023;44.994;1.796;2022-07-21T07:46:20;34.10;54.20
45283;DHT22;31023;44.994;1.796;2022-07-21T07:48:46;34.60;53.90
45283;DHT22;31023;44.994;1.796;2022-07-21T07:51:13;35.30;51.60
45283;DHT22;31023;44.994;1.796;2022-07-21T07:53:39;35.50;51.80
45283;DHT22;31023;44.994;1.796;2022-07-21T07:56:06;36.10;51.20
45283;DHT22;31023;44.994;1.796;2022-07-21T07:58:32;36.10;50.30
45283;DHT22;31023;44.994;1.796;2022-07-21T08:00:58;36.10;50.20
45283;DHT22;31023;44.994;1.796;2022-07-21T08:03:25;36.60;49.10
45283;DHT22;31023;44.994;1.796;2022-07-21T08:05:52;36.70;49.50
45283;DHT22;31023;44.994;1.796;2022-07-21T08:08:18;36.40;50.60
45283;DHT22;31023;44.994;1.796;2022-07-21T08:10:44;36.10;49.00
45283;DHT22;31023;44.994;1.796;2022-07-21T08:13:16;36.70;49.70
45283;DHT22;31023;44.994;1.796;2022-07-21T08:15:43;36.10;48.10
45283;DHT22;31023;44.994;1.796;2022-07-21T08:18:10;37.10;49.10
45283;DHT22;31023;44.994;1.796;2022-07-21T08:20:36;36.80;48.50
45283;DHT22;31023;44.994;1.796;2022-07-21T08:23:03;37.80;48.20
45283;DHT22;31023;44.994;1.796;2022-07-21T08:25:29;37.70;46.20
45283;DHT22;31023;44.994;1.796;2022-07-21T08:27:55;37.10;45.60
45283;DHT22;31023;44.994;1.796;2022-07-21T08:30:20;37.40;46.60
45283;DHT22;31023;44.994;1.796;2022-07-21T08:32:46;37.90;47.10
45283;DHT22;31023;44.994;1.796;2022-07-21T08:35:12;38.00;46.20
45283;DHT22;31023;44.994;1.796;2022-07-21T08:37:39;38.30;45.10
45283;DHT22;31023;44.994;1.796;2022-07-21T08:40:07;38.40;45.10
45283;DHT22;31023;44.994;1.796;2022-07-21T08:42:34;38.40;45.00
45283;DHT22;31023;44.994;1.796;2022-07-21T08:45:00;39.20;45.00
45283;DHT22;31023;44.994;1.796;2022-07-21T08:47:27;38.90;43.90
45283;DHT22;31023;44.994;1.796;2022-07-21T08:49:54;37.90;43.30
45283;DHT22;31023;44.994;1.796;2022-07-21T08:52:20;38.30;43.30
45283;DHT22;31023;44.994;1.796;2022-07-21T08:54:46;39.80;43.50
45283;DHT22;31023;44.994;1.796;2022-07-21T08:57:12;39.90;43.40
45283;DHT22;31023;44.994;1.796;2022-07-21T08:59:38;39.10;43.50
45283;DHT22;31023;44.994;1.796;2022-07-21T09:02:03;40.10;41.40
45283;DHT22;31023;44.994;1.796;2022-07-21T09:04:34;40.30;41.60
45283;DHT22;31023;44.994;1.796;2022-07-21T09:07:05;40.00;41.10
45283;DHT22;31023;44.994;1.796;2022-07-21T09:09:32;39.50;40.40
45283;DHT22;31023;44.994;1.796;2022-07-21T09:11:59;38.80;40.60
45283;DHT22;31023;44.994;1.796;2022-07-21T09:14:27;38.60;42.20
45283;DHT22;31023;44.994;1.796;2022-07-21T09:16:59;39.50;40.50
45283;DHT22;31023;44.994;1.796;2022-07-21T09:19:36;39.40;41.80
45283;DHT22;31023;44.994;1.796;2022-07-21T09:22:07;39.00;41.60
45283;DHT22;31023;44.994;1.796;2022-07-21T09:24:37;39.60;42.90
45283;DHT22;31023;44.994;1.796;2022-07-21T09:27:14;40.70;42.20
45283;DHT22;31023;44.994;1.796;2022-07-21T09:32:24;38.10;40.50
45283;DHT22;31023;44.994;1.796;2022-07-21T09:37:30;40.10;40.90
45283;DHT22;31023;44.994;1.796;2022-07-21T09:39:59;39.30;40.80
45283;DHT22;31023;44.994;1.796;2022-07-21T09:42:31;39.50;40.70
45283;DHT22;31023;44.994;1.796;2022-07-21T09:45:08;39.50;40.70
45283;DHT22;31023;44.994;1.796;2022-07-21T09:47:35;39.70;40.20
45283;DHT22;31023;44.994;1.796;2022-07-21T09:50:05;40.40;39.10
45283;DHT22;31023;44.994;1.796;2022-07-21T09:52:33;41.40;38.50
45283;DHT22;31023;44.994;1.796;2022-07-21T09:55:01;41.30;37.80
45283;DHT22;31023;44.994;1.796;2022-07-21T09:57:28;41.00;38.10
45283;DHT22;31023;44.994;1.796;2022-07-21T09:59:54;39.30;38.10
45283;DHT22;31023;44.994;1.796;2022-07-21T10:02:26;40.20;40.20
45283;DHT22;31023;44.994;1.796;2022-07-21T10:04:59;41.80;38.90
45283;DHT22;31023;44.994;1.796;2022-07-21T10:07:26;41.20;38.00
45283;DHT22;31023;44.994;1.796;2022-07-21T10:09:53;40.80;38.30
45283;DHT22;31023;44.994;1.796;2022-07-21T10:12:19;40.70;37.80
45283;DHT22;31023;44.994;1.796;2022-07-21T10:14:45;39.70;38.20
45283;DHT22;31023;44.994;1.796;2022-07-21T10:17:30;41.30;39.10
45283;DHT22;31023;44.994;1.796;2022-07-21T10:20:13;39.80;37.50
45283;DHT22;31023;44.994;1.796;2022-07-21T10:25:19;39.90;37.30
45283;DHT22;31023;44.994;1.796;2022-07-21T10:28:12;38.90;38.40
45283;DHT22;31023;44.994;1.796;2022-07-21T10:30:49;40.70;37.70
45283;DHT22;31023;44.994;1.796;2022-07-21T10:33:19;39.60;38.20
45283;DHT22;31023;44.994;1.796;2022-07-21T10:35:47;39.00;39.30
45283;DHT22;31023;44.994;1.796;2022-07-21T10:40:54;35.10;40.70
45283;DHT22;31023;44.994;1.796;2022-07-21T10:45:49;33.80;43.50
45283;DHT22;31023;44.994;1.796;2022-07-21T10:51:13;33.70;42.90
45283;DHT22;31023;44.994;1.796;2022-07-21T10:53:40;33.20;44.60
45283;DHT22;31023;44.994;1.796;2022-07-21T10:56:07;33.50;44.10
45283;DHT22;31023;44.994;1.796;2022-07-21T11:03:43;32.60;44.80
45283;DHT22;31023;44.994;1.796;2022-07-21T11:06:19;32.20;45.20
45283;DHT22;31023;44.994;1.796;2022-07-21T11:11:19;32.20;45.50
45283;DHT22;31023;44.994;1.796;2022-07-21T11:22:15;31.30;46.10
45283;DHT22;31023;44.994;1.796;2022-07-21T11:24:47;31.30;46.70
45283;DHT22;31023;44.994;1.796;2022-07-21T11:27:19;31.40;46.20
45283;DHT22;31023;44.994;1.796;2022-07-21T11:29:46;31.40;46.40
45283;DHT22;31023;44.994;1.796;2022-07-21T11:32:13;31.20;47.00
45283;DHT22;31023;44.994;1.796;2022-07-21T11:37:12;31.10;45.60
45283;DHT22;31023;44.994;1.796;2022-07-21T11:39:38;31.00;46.50
45283;DHT22;31023;44.994;1.796;2022-07-21T11:42:14;31.00;47.20
45283;DHT22;31023;44.994;1.796;2022-07-21T11:44:41;31.20;47.00
45283;DHT22;31023;44.994;1.796;2022-07-21T11:47:11;31.50;48.30
45283;DHT22;31023;44.994;1.796;2022-07-21T11:49:38;31.40;46.80
45283;DHT22;31023;44.994;1.796;2022-07-21T11:52:07;31.10;47.60
45283;DHT22;31023;44.994;1.796;2022-07-21T11:57:05;31.00;47.40
45283;DHT22;31023;44.994;1.796;2022-07-21T11:59:32;31.20;46.90
45283;DHT22;31023;44.994;1.796;2022-07-21T12:02:02;30.60;46.10
45283;DHT22;31023;44.994;1.796;2022-07-21T12:04:33;30.80;47.80
45283;DHT22;31023;44.994;1.796;2022-07-21T12:06:59;31.10;47.90
45283;DHT22;31023;44.994;1.796;2022-07-21T12:09:25;30.90;46.40
45283;DHT22;31023;44.994;1.796;2022-07-21T12:11:52;30.60;46.60
45283;DHT22;31023;44.994;1.796;2022-07-21T12:14:17;30.70;46.90
45283;DHT22;31023;44.994;1.796;2022-07-21T12:16:53;30.50;48.10
45283;DHT22;31023;44.994;1.796;2022-07-21T12:19:19;30.60;47.60
45283;DHT22;31023;44.994;1.796;2022-07-21T12:21:49;30.50;46.80
45283;DHT22;31023;44.994;1.796;2022-07-21T12:24:20;30.50;46.90
45283;DHT22;31023;44.994;1.796;2022-07-21T12:26:49;30.40;48.30
45283;DHT22;31023;44.994;1.796;2022-07-21T12:29:30;30.80;48.20
45283;DHT22;31023;44.994;1.796;2022-07-21T12:31:56;30.90;47.60
45283;DHT22;31023;44.994;1.796;2022-07-21T12:34:21;30.80;46.70
45283;DHT22;31023;44.994;1.796;2022-07-21T12:36:49;30.80;46.70
45283;DHT22;31023;44.994;1.796;2022-07-21T12:39:25;30.50;46.60
45283;DHT22;31023;44.994;1.796;2022-07-21T12:42:29;30.60;46.90
45283;DHT22;31023;44.994;1.796;2022-07-21T12:44:56;30.50;47.70
45283;DHT22;31023;44.994;1.796;2022-07-21T12:47:22;30.50;48.50
45283;DHT22;31023;44.994;1.796;2022-07-21T12:49:53;30.40;46.60
45283;DHT22;31023;44.994;1.796;2022-07-21T12:52:19;30.40;47.90
45283;DHT22;31023;44.994;1.796;2022-07-21T12:54:47;30.30;47.20
45283;DHT22;31023;44.994;1.796;2022-07-21T12:57:16;30.40;47.30
45283;DHT22;31023;44.994;1.796;2022-07-21T12:59:41;30.40;47.20
45283;DHT22;31023;44.994;1.796;2022-07-21T13:02:07;30.10;47.50
45283;DHT22;31023;44.994;1.796;2022-07-21T13:04:33;30.20;47.20
45283;DHT22;31023;44.994;1.796;2022-07-21T13:06:59;30.10;47.20
45283;DHT22;31023;44.994;1.796;2022-07-21T13:09:24;30.00;47.80
45283;DHT22;31023;44.994;1.796;2022-07-21T13:11:53;30.30;47.50
45283;DHT22;31023;44.994;1.796;2022-07-21T13:14:19;30.20;47.60
45283;DHT22;31023;44.994;1.796;2022-07-21T13:16:45;30.00;47.30
45283;DHT22;31023;44.994;1.796;2022-07-21T13:19:11;29.90;47.70
45283;DHT22;31023;44.994;1.796;2022-07-21T13:21:37;29.90;48.40
45283;DHT22;31023;44.994;1.796;2022-07-21T13:24:02;30.00;47.50
45283;DHT22;31023;44.994;1.796;2022-07-21T13:26:28;30.10;47.90
45283;DHT22;31023;44.994;1.796;2022-07-21T13:28:54;30.20;48.00
45283;DHT22;31023;44.994;1.796;2022-07-21T13:31:20;30.20;48.30
45283;DHT22;31023;44.994;1.796;2022-07-21T13:33:47;30.10;47.80
45283;DHT22;31023;44.994;1.796;2022-07-21T13:36:13;30.00;48.90
45283;DHT22;31023;44.994;1.796;2022-07-21T13:38:38;30.10;48.40
45283;DHT22;31023;44.994;1.796;2022-07-21T13:41:04;30.10;48.90
45283;DHT22;31023;44.994;1.796;2022-07-21T13:43:30;30.00;48.80
45283;DHT22;31023;44.994;1.796;2022-07-21T13:45:56;30.10;48.70
45283;DHT22;31023;44.994;1.796;2022-07-21T13:48:22;30.30;50.30
45283;DHT22;31023;44.994;1.796;2022-07-21T13:50:47;30.50;51.90
45283;DHT22;31023;44.994;1.796;2022-07-21T13:53:16;30.30;51.00
45283;DHT22;31023;44.994;1.796;2022-07-21T13:55:42;30.60;49.70
45283;DHT22;31023;44.994;1.796;2022-07-21T13:58:07;30.40;47.80
45283;DHT22;31023;44.994;1.796;2022-07-21T14:00:34;30.00;48.30
45283;DHT22;31023;44.994;1.796;2022-07-21T14:03:00;30.10;48.70
45283;DHT22;31023;44.994;1.796;2022-07-21T14:05:25;30.00;49.40
45283;DHT22;31023;44.994;1.796;2022-07-21T14:07:51;30.20;51.50
45283;DHT22;31023;44.994;1.796;2022-07-21T14:10:19;30.20;50.80
45283;DHT22;31023;44.994;1.796;2022-07-21T14:12:45;30.20;51.20
45283;DHT22;31023;44.994;1.796;2022-07-21T14:15:11;30.20;50.80
45283;DHT22;31023;44.994;1.796;2022-07-21T14:17:37;30.20;50.60
45283;DHT22;31023;44.994;1.796;2022-07-21T14:20:03;30.30;51.90
45283;DHT22;31023;44.994;1.796;2022-07-21T14:22:29;30.30;50.70
45283;DHT22;31023;44.994;1.796;2022-07-21T14:24:55;30.20;49.50
45283;DHT22;31023;44.994;1.796;2022-07-21T14:27:39;30.20;48.50
45283;DHT22;31023;44.994;1.796;2022-07-21T14:30:08;30.10;49.80
45283;DHT22;31023;44.994;1.796;2022-07-21T14:32:34;30.20;50.40
45283;DHT22;31023;44.994;1.796;2022-07-21T14:35:00;30.10;48.70
45283;DHT22;31023;44.994;1.796;2022-07-21T14:37:25;29.90;49.70
45283;DHT22;31023;44.994;1.796;2022-07-21T14:39:51;30.20;50.50
45283;DHT22;31023;44.994;1.796;2022-07-21T14:42:17;30.20;50.10
45283;DHT22;31023;44.994;1.796;2022-07-21T14:44:44;30.30;50.10
45283;DHT22;31023;44.994;1.796;2022-07-21T14:47:11;30.30;49.20
45283;DHT22;31023;44.994;1.796;2022-07-21T14:49:37;30.00;49.10
45283;DHT22;31023;44.994;1.796;2022-07-21T14:52:03;29.90;49.10
45283;DHT22;31023;44.994;1.796;2022-07-21T14:54:32;30.20;49.60
45283;DHT22;31023;44.994;1.796;2022-07-21T14:56:58;30.20;49.60
45283;DHT22;31023;44.994;1.796;2022-07-21T14:59:24;30.00;50.60
45283;DHT22;31023;44.994;1.796;2022-07-21T15:01:49;30.00;49.20
45283;DHT22;31023;44.994;1.796;2022-07-21T15:04:15;29.90;49.70
45283;DHT22;31023;44.994;1.796;2022-07-21T15:06:41;29.80;49.70
45283;DHT22;31023;44.994;1.796;2022-07-21T15:09:09;29.70;49.50
45283;DHT22;31023;44.994;1.796;2022-07-21T15:11:34;29.60;49.40
45283;DHT22;31023;44.994;1.796;2022-07-21T15:14:00;29.60;49.40
45283;DHT22;31023;44.994;1.796;2022-07-21T15:16:26;29.60;49.90
45283;DHT22;31023;44.994;1.796;2022-07-21T15:18:51;29.80;49.40
45283;DHT22;31023;44.994;1.796;2022-07-21T15:21:17;29.70;49.80
45283;DHT22;31023;44.994;1.796;2022-07-21T15:23:43;29.70;49.90
45283;DHT22;31023;44.994;1.796;2022-07-21T15:26:08;29.70;50.40
45283;DHT22;31023;44.994;1.796;2022-07-21T15:28:34;29.80;50.30
45283;DHT22;31023;44.994;1.796;2022-07-21T15:31:00;29.80;50.20
45283;DHT22;31023;44.994;1.796;2022-07-21T15:33:26;29.90;50.40
45283;DHT22;31023;44.994;1.796;2022-07-21T15:35:52;29.80;49.40
45283;DHT22;31023;44.994;1.796;2022-07-21T15:38:21;29.70;50.00
45283;DHT22;31023;44.994;1.796;2022-07-21T15:40:46;29.60;49.90
45283;DHT22;31023;44.994;1.796;2022-07-21T15:43:12;29.70;50.40
45283;DHT22;31023;44.994;1.796;2022-07-21T15:45:38;29.60;49.80
45283;DHT22;31023;44.994;1.796;2022-07-21T15:48:05;29.50;50.40
45283;DHT22;31023;44.994;1.796;2022-07-21T15:50:30;29.50;50.50
45283;DHT22;31023;44.994;1.796;2022-07-21T15:52:56;29.50;50.60
45283;DHT22;31023;44.994;1.796;2022-07-21T15:55:22;29.50;51.20
45283;DHT22;31023;44.994;1.796;2022-07-21T15:57:48;29.50;50.20
45283;DHT22;31023;44.994;1.796;2022-07-21T16:00:14;29.50;49.00
45283;DHT22;31023;44.994;1.796;2022-07-21T16:02:40;29.30;49.30
45283;DHT22;31023;44.994;1.796;2022-07-21T16:05:12;29.50;49.90
45283;DHT22;31023;44.994;1.796;2022-07-21T16:07:38;29.60;49.80